createdAt,value
2018-10-06T00:01:33.699Z,14.30
2018-10-06T00:04:03.103Z,14.20
2018-10-06T00:06:32.575Z,14.10
2018-10-06T00:09:02.027Z,13.90
2018-10-06T00:11:31.431Z,13.90
2018-10-06T00:14:00.883Z,13.80
2018-10-06T00:16:30.355Z,13.70
2018-10-06T00:18:59.839Z,13.70
2018-10-06T00:21:29.164Z,13.70
2018-10-06T00:23:58.616Z,13.80
2018-10-06T00:26:28.112Z,13.90
2018-10-06T00:28:57.477Z,13.90
2018-10-06T00:31:26.831Z,14.00
2018-10-06T00:33:56.259Z,14.10
2018-10-06T00:36:25.644Z,14.10
2018-10-06T00:38:55.136Z,14.20
2018-10-06T00:41:24.464Z,14.20
2018-10-06T00:43:53.938Z,14.30
2018-10-06T00:46:23.288Z,14.30
2018-10-06T00:48:52.751Z,14.30
2018-10-06T00:51:22.271Z,14.30
2018-10-06T00:53:51.740Z,14.30
2018-10-06T00:56:21.204Z,14.30
2018-10-06T00:58:50.652Z,14.30
2018-10-06T01:01:20.056Z,14.40
2018-10-06T01:03:49.545Z,14.40
2018-10-06T01:06:19.052Z,14.40
2018-10-06T01:08:48.579Z,14.40
2018-10-06T01:11:18.048Z,14.40
2018-10-06T01:13:47.500Z,14.50
2018-10-06T01:16:17.000Z,14.50
2018-10-06T01:18:46.499Z,14.50
2018-10-06T01:21:15.949Z,14.50
2018-10-06T01:23:45.424Z,14.50
2018-10-06T01:26:14.962Z,14.50
2018-10-06T01:28:45.208Z,14.40
2018-10-06T01:31:14.789Z,14.40
2018-10-06T01:33:45.752Z,14.30
2018-10-06T01:36:15.368Z,14.20
2018-10-06T01:38:46.147Z,14.20
2018-10-06T01:41:15.824Z,14.20
2018-10-06T01:43:45.395Z,14.10
2018-10-06T01:46:14.847Z,14.20
2018-10-06T01:48:45.128Z,14.20
2018-10-06T01:51:14.590Z,14.10
2018-10-06T01:53:44.039Z,14.00
2018-10-06T01:56:13.481Z,13.90
2018-10-06T01:58:42.859Z,13.80
2018-10-06T02:01:12.328Z,13.80
2018-10-06T02:03:41.785Z,13.80
2018-10-06T02:06:11.841Z,13.70
2018-10-06T02:08:41.283Z,13.70
2018-10-06T02:11:10.751Z,13.60
2018-10-06T02:13:40.268Z,13.60
2018-10-06T02:16:09.762Z,13.50
2018-10-06T02:18:39.231Z,13.50
2018-10-06T02:21:08.692Z,13.20
2018-10-06T02:23:38.219Z,13.10
2018-10-06T02:26:07.805Z,12.90
2018-10-06T02:28:37.144Z,12.90
2018-10-06T02:31:06.727Z,12.80
2018-10-06T02:33:36.196Z,12.80
2018-10-06T02:36:05.607Z,12.80
2018-10-06T02:38:35.070Z,12.70
2018-10-06T02:41:04.541Z,12.70
2018-10-06T02:43:33.939Z,12.60
2018-10-06T02:46:03.492Z,12.60
2018-10-06T02:48:32.931Z,12.60
2018-10-06T02:51:02.483Z,12.50
2018-10-06T02:53:31.940Z,12.50
2018-10-06T02:56:01.424Z,12.60
2018-10-06T02:58:30.908Z,12.70
2018-10-06T03:01:00.419Z,12.60
2018-10-06T03:03:29.835Z,12.60
2018-10-06T03:05:59.345Z,12.60
2018-10-06T03:08:28.779Z,12.60
2018-10-06T03:10:58.148Z,12.50
2018-10-06T03:13:27.599Z,12.40
2018-10-06T03:15:57.091Z,12.40
2018-10-06T03:18:26.540Z,12.30
2018-10-06T03:20:56.042Z,12.30
2018-10-06T03:23:25.487Z,12.40
2018-10-06T03:25:54.861Z,12.40
2018-10-06T03:28:24.316Z,12.40
2018-10-06T03:30:53.792Z,12.50
2018-10-06T03:33:23.265Z,12.60
2018-10-06T03:35:52.732Z,12.70
2018-10-06T03:38:22.130Z,12.70
2018-10-06T03:40:51.608Z,12.80
2018-10-06T03:43:20.951Z,12.80
2018-10-06T03:45:50.272Z,12.90
2018-10-06T03:48:19.619Z,12.90
2018-10-06T03:50:49.181Z,13.00
2018-10-06T03:53:18.656Z,13.00
2018-10-06T03:55:48.059Z,13.00
2018-10-06T03:58:17.535Z,13.00
2018-10-06T04:00:47.017Z,13.00
2018-10-06T04:03:16.540Z,13.00
2018-10-06T04:05:47.587Z,13.10
2018-10-06T04:08:17.180Z,13.10
2018-10-06T04:10:46.664Z,13.10
2018-10-06T04:13:16.148Z,13.10
2018-10-06T04:15:45.977Z,13.10
2018-10-06T04:18:15.311Z,13.10
2018-10-06T04:20:44.716Z,13.00
2018-10-06T04:23:14.273Z,13.00
2018-10-06T04:25:43.752Z,13.00
2018-10-06T04:28:13.324Z,12.90
2018-10-06T04:30:42.787Z,12.90
2018-10-06T04:33:12.168Z,12.90
2018-10-06T04:35:41.709Z,12.90
2018-10-06T04:38:11.206Z,12.90
2018-10-06T04:40:40.603Z,12.80
2018-10-06T04:43:10.080Z,12.80
2018-10-06T04:45:39.614Z,12.80
2018-10-06T04:48:09.063Z,12.70
2018-10-06T04:50:38.528Z,12.70
2018-10-06T04:53:07.888Z,12.70
2018-10-06T04:55:37.232Z,12.80
2018-10-06T04:58:06.595Z,12.80
2018-10-06T05:00:35.912Z,12.80
2018-10-06T05:03:05.379Z,12.90
2018-10-06T05:05:34.843Z,12.90
2018-10-06T05:08:04.372Z,12.90
2018-10-06T05:10:33.840Z,13.00
2018-10-06T05:13:03.301Z,13.00
2018-10-06T05:15:32.772Z,13.00
2018-10-06T05:18:02.119Z,13.00
2018-10-06T05:20:31.432Z,13.00
2018-10-06T05:23:00.868Z,13.00
2018-10-06T05:25:30.346Z,13.10
2018-10-06T05:27:59.687Z,13.10
2018-10-06T05:30:29.024Z,13.10
2018-10-06T05:32:58.410Z,13.10
2018-10-06T05:35:27.975Z,13.10
2018-10-06T05:37:57.356Z,13.10
2018-10-06T05:40:26.827Z,13.10
2018-10-06T05:42:56.303Z,13.10
2018-10-06T05:45:25.833Z,13.10
2018-10-06T05:47:55.332Z,13.10
2018-10-06T05:50:24.858Z,13.10
2018-10-06T05:52:54.261Z,13.10
2018-10-06T05:55:23.727Z,13.00
2018-10-06T05:57:53.193Z,12.90
2018-10-06T06:00:22.745Z,12.90
2018-10-06T06:02:52.251Z,12.80
2018-10-06T06:05:21.736Z,12.80
2018-10-06T06:07:51.441Z,12.90
2018-10-06T06:10:20.787Z,12.90
2018-10-06T06:12:50.327Z,12.80
2018-10-06T06:15:19.703Z,12.80
2018-10-06T06:17:49.195Z,12.70
2018-10-06T06:20:18.696Z,12.70
2018-10-06T06:22:48.081Z,12.60
2018-10-06T06:25:17.372Z,12.50
2018-10-06T06:27:46.812Z,12.50
2018-10-06T06:30:16.201Z,12.60
2018-10-06T06:32:46.513Z,12.70
2018-10-06T06:35:16.045Z,12.90
2018-10-06T06:37:46.489Z,13.20
2018-10-06T06:40:15.859Z,13.40
2018-10-06T06:42:45.272Z,13.70
2018-10-06T06:45:14.797Z,13.90
2018-10-06T06:47:44.263Z,14.10
2018-10-06T06:50:13.772Z,14.30
2018-10-06T06:52:43.255Z,14.40
2018-10-06T06:55:12.786Z,14.50
2018-10-06T06:57:42.248Z,14.60
2018-10-06T07:00:11.846Z,14.60
2018-10-06T07:02:41.299Z,14.60
2018-10-06T07:05:10.664Z,14.60
2018-10-06T07:07:40.180Z,14.60
2018-10-06T07:10:09.589Z,14.60
2018-10-06T07:12:38.996Z,14.50
2018-10-06T07:15:08.531Z,14.50
2018-10-06T07:17:38.032Z,14.50
2018-10-06T07:20:07.589Z,14.50
2018-10-06T07:22:36.931Z,14.40
2018-10-06T07:25:06.341Z,14.40
2018-10-06T07:27:35.855Z,14.40
2018-10-06T07:30:05.413Z,14.50
2018-10-06T07:32:34.914Z,14.40
2018-10-06T07:35:04.597Z,14.50
2018-10-06T07:37:34.014Z,14.50
2018-10-06T07:40:03.484Z,14.40
2018-10-06T07:42:32.872Z,14.30
2018-10-06T07:45:02.415Z,14.20
2018-10-06T07:47:31.928Z,14.10
2018-10-06T07:50:01.437Z,14.10
2018-10-06T07:52:30.999Z,14.00
2018-10-06T07:55:00.349Z,13.90
2018-10-06T07:57:29.849Z,13.90
2018-10-06T07:59:59.436Z,14.00
2018-10-06T08:02:28.908Z,14.10
2018-10-06T08:04:58.376Z,14.10
2018-10-06T08:07:27.837Z,14.10
2018-10-06T08:09:57.173Z,14.00
2018-10-06T08:12:26.548Z,14.00
2018-10-06T08:14:56.013Z,14.00
2018-10-06T08:17:25.468Z,14.10
2018-10-06T08:19:54.802Z,14.10
2018-10-06T08:22:24.099Z,14.00
2018-10-06T08:24:53.400Z,14.00
2018-10-06T08:27:22.739Z,14.00
2018-10-06T08:29:52.068Z,14.00
2018-10-06T08:32:21.518Z,14.10
2018-10-06T08:34:52.512Z,14.20
2018-10-06T08:37:21.983Z,14.20
2018-10-06T08:39:51.357Z,14.30
2018-10-06T08:42:20.791Z,14.40
2018-10-06T08:44:50.132Z,14.50
2018-10-06T08:47:19.655Z,14.40
2018-10-06T08:49:49.221Z,14.50
2018-10-06T08:52:18.704Z,14.50
2018-10-06T08:54:48.159Z,14.50
2018-10-06T08:57:17.787Z,14.50
2018-10-06T08:59:47.351Z,14.50
2018-10-06T09:02:16.690Z,14.50
2018-10-06T09:04:46.073Z,14.60
2018-10-06T09:07:15.448Z,14.70
2018-10-06T09:09:44.919Z,14.80
2018-10-06T09:12:14.243Z,14.70
2018-10-06T09:14:43.599Z,14.90
2018-10-06T09:17:13.056Z,14.90
2018-10-06T09:19:42.556Z,15.00
2018-10-06T09:22:12.072Z,15.10
2018-10-06T09:24:41.439Z,15.20
2018-10-06T09:27:10.875Z,15.30
2018-10-06T09:29:40.144Z,15.30
2018-10-06T09:32:09.600Z,15.40
2018-10-06T09:34:39.083Z,15.50
2018-10-06T09:37:08.662Z,15.60
2018-10-06T09:39:38.147Z,15.60
2018-10-06T09:42:07.717Z,15.70
2018-10-06T09:44:37.000Z,15.70
2018-10-06T09:47:06.515Z,15.80
2018-10-06T09:49:36.060Z,15.80
2018-10-06T09:52:05.549Z,15.80
2018-10-06T09:54:36.280Z,15.90
2018-10-06T09:57:05.695Z,15.90
2018-10-06T09:59:35.309Z,16.00
2018-10-06T10:02:08.979Z,16.10
2018-10-06T10:04:38.886Z,16.10
2018-10-06T10:07:08.524Z,16.10
2018-10-06T10:09:38.142Z,16.00
2018-10-06T10:12:07.612Z,16.10
2018-10-06T10:14:37.108Z,16.20
2018-10-06T10:17:06.664Z,16.30
2018-10-06T10:19:35.951Z,16.30
2018-10-06T10:22:05.494Z,16.40
2018-10-06T10:24:34.707Z,16.30
2018-10-06T10:27:04.085Z,16.40
2018-10-06T10:29:33.596Z,16.50
2018-10-06T10:32:02.976Z,16.60
2018-10-06T10:34:32.480Z,16.70
2018-10-06T10:37:01.898Z,16.70
2018-10-06T10:39:31.453Z,16.70
2018-10-06T10:42:00.716Z,16.80
2018-10-06T10:44:30.182Z,16.80
2018-10-06T10:46:59.504Z,17.00
2018-10-06T10:49:28.926Z,17.10
2018-10-06T10:51:58.243Z,17.00
2018-10-06T10:54:27.608Z,17.00
2018-10-06T10:56:56.995Z,17.00
2018-10-06T10:59:26.495Z,17.10
2018-10-06T11:01:55.837Z,17.30
2018-10-06T11:04:25.344Z,17.30
2018-10-06T11:06:54.717Z,17.30
2018-10-06T11:09:24.104Z,17.40
2018-10-06T11:11:53.603Z,17.40
2018-10-06T11:14:23.102Z,17.40
2018-10-06T11:16:52.552Z,17.30
2018-10-06T11:19:22.047Z,17.20
2018-10-06T11:21:51.551Z,17.20
2018-10-06T11:24:21.100Z,17.20
2018-10-06T11:26:50.439Z,17.10
2018-10-06T11:29:19.844Z,17.20
2018-10-06T11:31:49.507Z,17.20
2018-10-06T11:34:18.936Z,17.40
2018-10-06T11:36:48.487Z,17.30
2018-10-06T11:39:17.794Z,17.30
2018-10-06T11:41:48.185Z,17.30
2018-10-06T11:44:17.593Z,17.40
2018-10-06T11:46:47.905Z,17.40
2018-10-06T11:49:17.485Z,17.60
2018-10-06T11:51:47.899Z,17.60
2018-10-06T11:54:17.283Z,17.60
2018-10-06T11:56:53.396Z,17.60
2018-10-06T11:59:22.903Z,17.70
2018-10-06T12:01:52.367Z,17.90
2018-10-06T12:04:21.768Z,18.00
2018-10-06T12:06:58.080Z,18.00
2018-10-06T12:09:27.539Z,18.10
2018-10-06T12:11:57.000Z,18.20
2018-10-06T12:14:26.573Z,18.20
2018-10-06T12:16:56.071Z,18.10
2018-10-06T12:19:25.527Z,18.10
2018-10-06T12:21:54.912Z,18.00
2018-10-06T12:24:24.648Z,18.00
2018-10-06T12:26:54.181Z,17.90
2018-10-06T12:29:23.576Z,18.00
2018-10-06T12:31:53.146Z,18.00
2018-10-06T12:34:22.638Z,18.00
2018-10-06T12:36:52.171Z,18.10
2018-10-06T12:39:21.754Z,18.00
2018-10-06T12:41:51.171Z,17.90
2018-10-06T12:44:20.644Z,17.90
2018-10-06T12:46:50.266Z,17.90
2018-10-06T12:49:19.812Z,17.90
2018-10-06T12:51:49.440Z,17.90
2018-10-06T12:54:18.940Z,18.00
2018-10-06T12:56:48.700Z,18.00
2018-10-06T12:59:18.235Z,18.00
2018-10-06T13:01:48.563Z,18.00
2018-10-06T13:04:17.992Z,18.00
2018-10-06T13:06:48.428Z,18.00
2018-10-06T13:09:17.930Z,18.00
2018-10-06T13:11:48.356Z,18.00
2018-10-06T13:14:17.721Z,17.90
2018-10-06T13:16:47.266Z,17.90
2018-10-06T13:19:16.740Z,17.90
2018-10-06T13:21:46.175Z,17.90
2018-10-06T13:24:15.532Z,17.80
2018-10-06T13:26:45.018Z,17.80
2018-10-06T13:29:14.563Z,17.80
2018-10-06T13:31:44.054Z,17.80
2018-10-06T13:34:13.548Z,17.80
2018-10-06T13:36:42.961Z,17.70
2018-10-06T13:39:12.477Z,17.70
2018-10-06T13:41:41.915Z,17.70
2018-10-06T13:44:11.501Z,17.50
2018-10-06T13:46:40.921Z,17.50
2018-10-06T13:49:10.496Z,17.50
2018-10-06T13:51:40.020Z,17.40
2018-10-06T13:54:09.614Z,17.40
2018-10-06T13:56:39.162Z,17.40
2018-10-06T13:59:08.736Z,17.30
2018-10-06T14:01:38.341Z,17.30
2018-10-06T14:04:07.771Z,17.20
2018-10-06T14:06:37.217Z,17.20
2018-10-06T14:09:07.708Z,17.20
2018-10-06T14:11:37.272Z,17.10
2018-10-06T14:14:06.688Z,17.10
2018-10-06T14:16:35.980Z,17.00
2018-10-06T14:19:05.740Z,17.00
2018-10-06T14:21:35.271Z,17.00
2018-10-06T14:24:04.786Z,16.90
2018-10-06T14:26:34.480Z,16.90
2018-10-06T14:29:03.925Z,16.90
2018-10-06T14:31:33.443Z,16.80
2018-10-06T14:34:02.912Z,16.80
2018-10-06T14:36:32.408Z,16.80
2018-10-06T14:39:01.954Z,16.70
2018-10-06T14:41:31.499Z,16.70
2018-10-06T14:44:00.917Z,16.70
2018-10-06T14:46:30.391Z,16.60
2018-10-06T14:48:59.896Z,16.60
2018-10-06T14:51:29.435Z,16.50
2018-10-06T14:53:58.784Z,16.60
2018-10-06T14:56:28.135Z,16.50
2018-10-06T14:58:57.476Z,16.50
2018-10-06T15:01:26.919Z,16.40
2018-10-06T15:03:56.440Z,16.40
2018-10-06T15:06:25.796Z,16.40
2018-10-06T15:08:55.167Z,16.30
2018-10-06T15:11:24.533Z,16.30
2018-10-06T15:13:54.056Z,16.30
2018-10-06T15:16:23.423Z,16.20
2018-10-06T15:18:52.798Z,16.20
2018-10-06T15:21:22.246Z,16.20
2018-10-06T15:23:51.507Z,16.10
2018-10-06T15:26:23.164Z,16.10
2018-10-06T15:28:52.713Z,16.10
2018-10-06T15:31:22.255Z,16.10
2018-10-06T15:33:51.804Z,16.00
2018-10-06T15:36:21.438Z,16.00
2018-10-06T15:38:50.979Z,15.90
2018-10-06T15:41:20.534Z,15.90
2018-10-06T15:43:50.058Z,15.80
2018-10-06T15:46:19.543Z,15.80
2018-10-06T15:48:49.189Z,15.80
2018-10-06T15:51:18.656Z,15.80
2018-10-06T15:53:49.180Z,15.70
2018-10-06T15:56:18.596Z,15.60
2018-10-06T15:58:49.111Z,15.60
2018-10-06T16:01:18.544Z,15.60
2018-10-06T16:03:48.931Z,15.60
2018-10-06T16:06:18.371Z,15.60
2018-10-06T16:08:47.932Z,15.80
2018-10-06T16:11:17.315Z,15.50
2018-10-06T16:13:46.772Z,15.50
2018-10-06T16:16:16.080Z,15.40
2018-10-06T16:18:45.611Z,15.40
2018-10-06T16:21:15.195Z,15.40
2018-10-06T16:23:44.681Z,15.40
2018-10-06T16:46:26.166Z,15.00
2018-10-06T16:48:55.643Z,15.00
2018-10-06T16:51:25.432Z,14.90
2018-10-06T16:53:54.859Z,14.90
2018-10-06T16:56:29.637Z,14.80
2018-10-06T16:58:59.077Z,14.80
2018-10-06T17:01:28.404Z,14.70
2018-10-06T17:03:57.719Z,14.70
2018-10-06T17:06:27.060Z,14.60
2018-10-06T17:08:56.489Z,14.50
2018-10-06T17:11:25.789Z,14.50
2018-10-06T17:13:55.195Z,14.40
2018-10-06T17:16:24.516Z,14.30
2018-10-06T17:18:53.984Z,14.30
2018-10-06T17:21:23.313Z,14.20
2018-10-06T17:23:52.787Z,14.10
2018-10-06T17:26:22.104Z,14.00
2018-10-06T17:28:51.580Z,13.90
2018-10-06T17:31:20.983Z,13.90
2018-10-06T17:33:50.312Z,13.80
2018-10-06T17:36:19.859Z,13.70
2018-10-06T17:38:49.447Z,13.60
2018-10-06T17:41:19.155Z,13.60
2018-10-06T17:43:48.701Z,13.50
2018-10-06T17:46:19.075Z,13.40
2018-10-06T17:48:49.427Z,13.30
2018-10-06T17:51:18.751Z,13.20
2018-10-06T17:53:48.177Z,13.10
2018-10-06T17:56:17.664Z,13.10
2018-10-06T17:58:47.054Z,13.00
2018-10-06T18:01:16.389Z,13.00
2018-10-06T18:03:45.792Z,12.90
2018-10-06T18:06:15.087Z,12.90
2018-10-06T18:08:44.405Z,12.90
2018-10-06T18:11:13.772Z,12.80
2018-10-06T18:13:43.140Z,12.70
2018-10-06T18:16:12.708Z,12.60
2018-10-06T18:18:42.260Z,12.60
2018-10-06T18:21:16.136Z,12.50
2018-10-06T18:23:45.800Z,12.50
2018-10-06T18:26:15.311Z,12.40
2018-10-06T18:28:44.891Z,12.30
2018-10-06T18:31:14.367Z,12.30
2018-10-06T18:33:43.680Z,12.20
2018-10-06T18:36:13.333Z,12.20
2018-10-06T18:38:42.709Z,12.10
2018-10-06T18:41:12.117Z,12.10
2018-10-06T18:43:41.562Z,12.00
2018-10-06T18:46:11.043Z,12.00
2018-10-06T18:48:40.452Z,11.90
2018-10-06T18:51:09.859Z,12.00
2018-10-06T18:53:39.236Z,11.90
2018-10-06T18:56:09.560Z,12.00
2018-10-06T18:58:38.980Z,12.00
2018-10-06T19:01:08.322Z,12.00
2018-10-06T19:03:37.691Z,12.00
2018-10-06T19:06:07.252Z,12.00
2018-10-06T19:08:36.680Z,12.00
2018-10-06T19:11:06.436Z,12.00
2018-10-06T19:13:35.811Z,12.00
2018-10-06T19:16:05.453Z,12.00
2018-10-06T19:18:34.800Z,11.90
2018-10-06T19:21:04.168Z,11.90
2018-10-06T19:23:33.529Z,11.90
2018-10-06T19:26:04.321Z,11.90
2018-10-06T19:28:33.696Z,11.90
2018-10-06T19:31:03.055Z,11.90
2018-10-06T19:33:32.468Z,11.90
2018-10-06T19:36:01.805Z,11.90
2018-10-06T19:38:31.409Z,11.90
2018-10-06T19:41:00.810Z,11.80
2018-10-06T19:43:30.172Z,11.80
2018-10-06T19:45:59.646Z,11.80
2018-10-06T19:48:29.061Z,11.80
2018-10-06T19:50:58.469Z,11.80
2018-10-06T19:53:28.062Z,11.70
2018-10-06T19:55:57.444Z,11.70
2018-10-06T19:58:26.874Z,11.70
2018-10-06T20:00:56.444Z,11.70
2018-10-06T20:03:25.812Z,11.70
2018-10-06T20:05:55.183Z,11.70
2018-10-06T20:08:24.698Z,11.70
2018-10-06T20:10:54.058Z,11.60
2018-10-06T20:13:23.443Z,11.50
2018-10-06T20:15:53.001Z,11.40
2018-10-06T20:18:22.413Z,11.40
2018-10-06T20:20:51.982Z,11.40
2018-10-06T20:23:21.459Z,11.30
2018-10-06T20:25:51.123Z,11.20
2018-10-06T20:28:20.793Z,11.20
2018-10-06T20:30:50.292Z,11.10
2018-10-06T20:33:19.850Z,11.10
2018-10-06T20:35:49.469Z,11.10
2018-10-06T20:38:18.848Z,11.10
2018-10-06T20:40:48.429Z,11.10
2018-10-06T20:43:17.797Z,11.00
2018-10-06T20:45:47.247Z,11.00
2018-10-06T20:48:16.728Z,11.00
2018-10-06T20:50:46.096Z,10.90
2018-10-06T20:53:15.493Z,10.90
2018-10-06T20:55:44.812Z,10.80
2018-10-06T20:58:14.240Z,10.80
2018-10-06T21:00:43.632Z,10.70
2018-10-06T21:03:13.010Z,10.70
2018-10-06T21:05:42.564Z,10.70
2018-10-06T21:08:12.040Z,10.60
2018-10-06T21:10:42.280Z,10.50
2018-10-06T21:13:11.983Z,10.50
2018-10-06T21:15:41.501Z,10.50
2018-10-06T21:18:10.913Z,10.40
2018-10-06T21:20:40.250Z,10.40
2018-10-06T21:23:10.089Z,10.40
2018-10-06T21:25:39.488Z,10.40
2018-10-06T21:28:09.948Z,10.40
2018-10-06T21:30:39.544Z,10.40
2018-10-06T21:33:10.122Z,10.40
2018-10-06T21:35:39.536Z,10.40
2018-10-06T21:38:08.847Z,10.40
2018-10-06T21:40:38.213Z,10.50
2018-10-06T21:43:07.604Z,10.50
2018-10-06T21:45:37.112Z,10.60
2018-10-06T21:48:06.554Z,10.60
2018-10-06T21:50:36.012Z,10.60
2018-10-06T21:53:05.407Z,10.60
2018-10-06T21:55:34.778Z,10.70
2018-10-06T21:58:04.220Z,10.60
2018-10-06T22:00:33.559Z,10.60
2018-10-06T22:03:03.012Z,10.60
2018-10-06T22:05:32.412Z,10.70
2018-10-06T22:08:01.763Z,10.70
2018-10-06T22:10:37.760Z,10.80
2018-10-06T22:13:07.310Z,10.80
2018-10-06T22:15:36.772Z,10.90
2018-10-06T22:18:06.236Z,11.00
2018-10-06T22:20:35.684Z,11.20
2018-10-06T22:23:05.081Z,11.30
2018-10-06T22:25:34.626Z,11.40
2018-10-06T22:28:04.083Z,11.50
2018-10-06T22:30:33.452Z,11.50
2018-10-06T22:33:02.827Z,11.60
2018-10-06T22:35:32.183Z,11.70
2018-10-06T22:38:01.664Z,11.70
2018-10-06T22:40:31.008Z,11.80
2018-10-06T22:43:00.455Z,11.90
2018-10-06T22:45:29.867Z,11.90
2018-10-06T22:47:59.203Z,11.90
2018-10-06T22:50:28.520Z,12.00
2018-10-06T22:52:57.861Z,12.00
2018-10-06T22:55:27.127Z,12.00
2018-10-06T22:57:56.424Z,12.00
2018-10-06T23:00:25.767Z,12.00
2018-10-06T23:02:55.049Z,12.00
2018-10-06T23:05:24.349Z,12.10
2018-10-06T23:07:53.772Z,12.10
2018-10-06T23:10:23.172Z,12.00
2018-10-06T23:12:52.619Z,12.00
2018-10-06T23:15:22.078Z,12.00
2018-10-06T23:17:51.482Z,11.90
2018-10-06T23:20:21.050Z,11.90
2018-10-06T23:22:50.355Z,11.80
2018-10-06T23:25:19.807Z,11.90
2018-10-06T23:27:49.279Z,11.90
2018-10-06T23:30:18.608Z,12.00
2018-10-06T23:32:48.073Z,12.00
2018-10-06T23:35:17.395Z,11.90
2018-10-06T23:37:46.900Z,11.80
2018-10-06T23:40:16.205Z,11.80
2018-10-06T23:42:45.563Z,11.90
2018-10-06T23:45:14.935Z,11.90
2018-10-06T23:47:44.419Z,12.00
2018-10-06T23:50:13.771Z,12.10
2018-10-06T23:52:43.239Z,12.20
2018-10-06T23:55:12.694Z,12.20
2018-10-06T23:57:41.980Z,12.30
